sensor_id;sensor_type;location;lat;lon;timestamp;temperature;humidity
52895;DHT22;38759;53.396;6.722;2023-04-15T00:01:24;7.30;99.90
52895;DHT22;38759;53.396;6.722;2023-04-15T00:03:51;7.20;99.90
52895;DHT22;38759;53.396;6.722;2023-04-15T00:06:18;7.30;99.90
52895;DHT22;38759;53.396;6.722;2023-04-15T00:08:44;7.20;99.90
52895;DHT22;38759;53.396;6.722;2023-04-15T00:11:10;7.20;99.90
52895;DHT22;38759;53.396;6.722;2023-04-15T00:13:37;7.10;99.90
52895;DHT22;38759;53.396;6.722;2023-04-15T00:16:04;7.00;99.90
52895;DHT22;38759;53.396;6.722;2023-04-15T00:18:30;7.00;99.90
52895;DHT22;38759;53.396;6.722;2023-04-15T00:20:56;6.90;99.90
52895;DHT22;38759;53.396;6.722;2023-04-15T00:23:22;6.80;99.90
52895;DHT22;38759;53.396;6.722;2023-04-15T00:25:48;6.80;99.90
52895;DHT22;38759;53.396;6.722;2023-04-15T00:28:14;6.70;99.90
52895;DHT22;38759;53.396;6.722;2023-04-15T00:30:39;6.60;99.90
52895;DHT22;38759;53.396;6.722;2023-04-15T00:33:06;6.70;99.90
52895;DHT22;38759;53.396;6.722;2023-04-15T00:35:32;6.50;99.90
52895;DHT22;38759;53.396;6.722;2023-04-15T00:37:58;6.70;99.90
52895;DHT22;38759;53.396;6.722;2023-04-15T00:40:24;6.60;99.90
52895;DHT22;38759;53.396;6.722;2023-04-15T00:42:50;6.70;99.90
52895;DHT22;38759;53.396;6.722;2023-04-15T00:45:17;6.50;99.90
52895;DHT22;38759;53.396;6.722;2023-04-15T00:47:43;6.60;99.90
52895;DHT22;38759;53.396;6.722;2023-04-15T00:50:10;6.60;99.90
52895;DHT22;38759;53.396;6.722;2023-04-15T00:52:37;6.50;99.90
52895;DHT22;38759;53.396;6.722;2023-04-15T00:55:04;6.50;99.90
52895;DHT22;38759;53.396;6.722;2023-04-15T00:57:29;6.50;99.90
52895;DHT22;38759;53.396;6.722;2023-04-15T00:59:56;6.60;99.90
52895;DHT22;38759;53.396;6.722;2023-04-15T01:02:23;6.50;99.90
52895;DHT22;38759;53.396;6.722;2023-04-15T01:04:49;6.50;99.90
52895;DHT22;38759;53.396;6.722;2023-04-15T01:07:15;6.40;99.90
52895;DHT22;38759;53.396;6.722;2023-04-15T01:09:41;6.40;99.90
52895;DHT22;38759;53.396;6.722;2023-04-15T01:12:09;6.30;99.90
52895;DHT22;38759;53.396;6.722;2023-04-15T01:14:36;6.30;99.90
52895;DHT22;38759;53.396;6.722;2023-04-15T01:17:02;6.30;99.90
52895;DHT22;38759;53.396;6.722;2023-04-15T01:19:27;6.30;99.90
52895;DHT22;38759;53.396;6.722;2023-04-15T01:21:54;6.30;99.90
52895;DHT22;38759;53.396;6.722;2023-04-15T01:24:19;6.30;99.90
52895;DHT22;38759;53.396;6.722;2023-04-15T01:26:45;6.20;99.90
52895;DHT22;38759;53.396;6.722;2023-04-15T01:29:12;6.20;99.90
52895;DHT22;38759;53.396;6.722;2023-04-15T01:31:37;6.10;99.90
52895;DHT22;38759;53.396;6.722;2023-04-15T01:34:03;6.20;99.90
52895;DHT22;38759;53.396;6.722;2023-04-15T01:36:29;6.00;99.90
52895;DHT22;38759;53.396;6.722;2023-04-15T01:38:55;6.00;99.90
52895;DHT22;38759;53.396;6.722;2023-04-15T01:41:27;6.00;99.90
52895;DHT22;38759;53.396;6.722;2023-04-15T01:43:54;6.00;99.90
52895;DHT22;38759;53.396;6.722;2023-04-15T01:46:21;6.00;99.90
52895;DHT22;38759;53.396;6.722;2023-04-15T01:48:46;6.00;99.90
52895;DHT22;38759;53.396;6.722;2023-04-15T01:51:12;5.90;99.90
52895;DHT22;38759;53.396;6.722;2023-04-15T01:53:38;5.90;99.90
52895;DHT22;38759;53.396;6.722;2023-04-15T01:56:03;5.90;99.90
52895;DHT22;38759;53.396;6.722;2023-04-15T01:58:29;5.80;99.90
52895;DHT22;38759;53.396;6.722;2023-04-15T02:00:55;5.80;99.90
52895;DHT22;38759;53.396;6.722;2023-04-15T02:03:21;5.70;99.90
52895;DHT22;38759;53.396;6.722;2023-04-15T02:05:47;5.70;99.90
52895;DHT22;38759;53.396;6.722;2023-04-15T02:08:13;5.70;99.90
52895;DHT22;38759;53.396;6.722;2023-04-15T02:10:39;5.70;99.90
52895;DHT22;38759;53.396;6.722;2023-04-15T02:13:05;5.60;99.90
52895;DHT22;38759;53.396;6.722;2023-04-15T02:15:30;5.70;99.90
52895;DHT22;38759;53.396;6.722;2023-04-15T02:17:56;5.70;99.90
52895;DHT22;38759;53.396;6.722;2023-04-15T02:20:23;5.60;99.90
52895;DHT22;38759;53.396;6.722;2023-04-15T02:22:49;5.60;99.90
52895;DHT22;38759;53.396;6.722;2023-04-15T02:25:15;5.70;99.90
52895;DHT22;38759;53.396;6.722;2023-04-15T02:27:44;5.60;99.90
52895;DHT22;38759;53.396;6.722;2023-04-15T02:30:10;5.50;99.90
52895;DHT22;38759;53.396;6.722;2023-04-15T02:32:36;5.40;99.90
52895;DHT22;38759;53.396;6.722;2023-04-15T02:35:06;5.40;99.90
52895;DHT22;38759;53.396;6.722;2023-04-15T02:37:34;5.20;99.90
52895;DHT22;38759;53.396;6.722;2023-04-15T02:40:09;5.30;99.90
52895;DHT22;38759;53.396;6.722;2023-04-15T02:42:38;5.20;99.90
52895;DHT22;38759;53.396;6.722;2023-04-15T02:45:05;5.10;99.90
52895;DHT22;38759;53.396;6.722;2023-04-15T02:47:35;5.10;99.90
52895;DHT22;38759;53.396;6.722;2023-04-15T02:50:06;5.10;99.90
52895;DHT22;38759;53.396;6.722;2023-04-15T02:52:32;5.10;99.90
52895;DHT22;38759;53.396;6.722;2023-04-15T02:54:58;5.00;99.90
52895;DHT22;38759;53.396;6.722;2023-04-15T02:57:27;5.00;99.90
52895;DHT22;38759;53.396;6.722;2023-04-15T02:59:54;5.10;99.90
52895;DHT22;38759;53.396;6.722;2023-04-15T03:02:19;5.00;99.90
52895;DHT22;38759;53.396;6.722;2023-04-15T03:04:45;5.00;99.90
52895;DHT22;38759;53.396;6.722;2023-04-15T03:07:11;5.00;99.90
52895;DHT22;38759;53.396;6.722;2023-04-15T03:09:37;5.00;99.90
52895;DHT22;38759;53.396;6.722;2023-04-15T03:12:04;5.00;99.90
52895;DHT22;38759;53.396;6.722;2023-04-15T03:14:30;5.00;99.90
52895;DHT22;38759;53.396;6.722;2023-04-15T03:16:56;5.00;99.90
52895;DHT22;38759;53.396;6.722;2023-04-15T03:19:23;5.00;99.90
52895;DHT22;38759;53.396;6.722;2023-04-15T03:21:49;5.00;99.90
52895;DHT22;38759;53.396;6.722;2023-04-15T03:24:15;5.00;99.90
52895;DHT22;38759;53.396;6.722;2023-04-15T03:26:41;5.00;99.90
52895;DHT22;38759;53.396;6.722;2023-04-15T03:29:06;5.00;99.90
52895;DHT22;38759;53.396;6.722;2023-04-15T03:31:32;5.10;99.90
52895;DHT22;38759;53.396;6.722;2023-04-15T03:33:57;4.90;99.90
52895;DHT22;38759;53.396;6.722;2023-04-15T03:36:23;4.80;99.90
52895;DHT22;38759;53.396;6.722;2023-04-15T03:38:49;4.70;99.90
52895;DHT22;38759;53.396;6.722;2023-04-15T03:41:15;4.70;99.90
52895;DHT22;38759;53.396;6.722;2023-04-15T03:43:40;4.60;99.90
52895;DHT22;38759;53.396;6.722;2023-04-15T03:46:06;4.50;99.90
52895;DHT22;38759;53.396;6.722;2023-04-15T03:48:32;4.40;99.90
52895;DHT22;38759;53.396;6.722;2023-04-15T03:50:57;4.30;99.90
52895;DHT22;38759;53.396;6.722;2023-04-15T03:53:23;4.20;99.90
52895;DHT22;38759;53.396;6.722;2023-04-15T03:55:48;4.20;99.90
52895;DHT22;38759;53.396;6.722;2023-04-15T03:58:14;4.10;99.90
52895;DHT22;38759;53.396;6.722;2023-04-15T04:00:40;4.10;99.90
52895;DHT22;38759;53.396;6.722;2023-04-15T04:03:07;4.20;99.90
52895;DHT22;38759;53.396;6.722;2023-04-15T04:05:33;4.10;99.90
52895;DHT22;38759;53.396;6.722;2023-04-15T04:08:01;4.10;99.90
52895;DHT22;38759;53.396;6.722;2023-04-15T04:10:27;4.10;99.90
52895;DHT22;38759;53.396;6.722;2023-04-15T04:12:52;4.00;99.90
52895;DHT22;38759;53.396;6.722;2023-04-15T04:15:18;4.10;99.90
52895;DHT22;38759;53.396;6.722;2023-04-15T04:17:44;4.10;99.90
52895;DHT22;38759;53.396;6.722;2023-04-15T04:20:10;4.20;99.90
52895;DHT22;38759;53.396;6.722;2023-04-15T04:22:39;4.20;99.90
52895;DHT22;38759;53.396;6.722;2023-04-15T04:25:05;4.30;99.90
52895;DHT22;38759;53.396;6.722;2023-04-15T04:27:33;4.40;99.90
52895;DHT22;38759;53.396;6.722;2023-04-15T04:29:58;4.40;99.90
52895;DHT22;38759;53.396;6.722;2023-04-15T04:32:24;4.60;99.90
52895;DHT22;38759;53.396;6.722;2023-04-15T04:34:50;4.70;99.90
52895;DHT22;38759;53.396;6.722;2023-04-15T04:37:15;4.70;99.90
52895;DHT22;38759;53.396;6.722;2023-04-15T04:39:41;4.80;99.90
52895;DHT22;38759;53.396;6.722;2023-04-15T04:42:07;4.80;99.90
52895;DHT22;38759;53.396;6.722;2023-04-15T04:44:32;4.90;99.90
52895;DHT22;38759;53.396;6.722;2023-04-15T04:46:58;5.00;99.90
52895;DHT22;38759;53.396;6.722;2023-04-15T04:49:24;4.90;99.90
52895;DHT22;38759;53.396;6.722;2023-04-15T04:51:50;5.00;99.90
52895;DHT22;38759;53.396;6.722;2023-04-15T04:54:15;5.00;99.90
52895;DHT22;38759;53.396;6.722;2023-04-15T04:56:42;5.10;99.90
52895;DHT22;38759;53.396;6.722;2023-04-15T04:59:07;5.00;99.90
52895;DHT22;38759;53.396;6.722;2023-04-15T05:01:34;5.10;99.90
52895;DHT22;38759;53.396;6.722;2023-04-15T05:04:00;5.20;99.90
52895;DHT22;38759;53.396;6.722;2023-04-15T05:06:25;5.00;99.90
52895;DHT22;38759;53.396;6.722;2023-04-15T05:08:52;5.10;99.90
52895;DHT22;38759;53.396;6.722;2023-04-15T05:11:17;5.10;99.90
52895;DHT22;38759;53.396;6.722;2023-04-15T05:13:43;5.00;99.90
52895;DHT22;38759;53.396;6.722;2023-04-15T05:16:09;5.10;99.90
52895;DHT22;38759;53.396;6.722;2023-04-15T05:18:34;5.20;99.90
52895;DHT22;38759;53.396;6.722;2023-04-15T05:21:01;5.20;99.90
52895;DHT22;38759;53.396;6.722;2023-04-15T05:23:27;5.20;99.90
52895;DHT22;38759;53.396;6.722;2023-04-15T05:25:52;5.30;99.90
52895;DHT22;38759;53.396;6.722;2023-04-15T05:28:18;5.30;99.90
52895;DHT22;38759;53.396;6.722;2023-04-15T05:30:44;5.40;99.90
52895;DHT22;38759;53.396;6.722;2023-04-15T05:33:10;5.40;99.90
52895;DHT22;38759;53.396;6.722;2023-04-15T05:35:35;5.50;99.90
52895;DHT22;38759;53.396;6.722;2023-04-15T05:38:01;5.60;99.90
52895;DHT22;38759;53.396;6.722;2023-04-15T05:40:26;5.60;99.90
52895;DHT22;38759;53.396;6.722;2023-04-15T05:42:52;5.70;99.90
52895;DHT22;38759;53.396;6.722;2023-04-15T05:45:18;5.70;99.90
52895;DHT22;38759;53.396;6.722;2023-04-15T05:47:43;5.80;99.90
52895;DHT22;38759;53.396;6.722;2023-04-15T05:50:09;5.90;99.90
52895;DHT22;38759;53.396;6.722;2023-04-15T05:52:35;6.00;99.90
52895;DHT22;38759;53.396;6.722;2023-04-15T05:55:01;6.10;99.90
52895;DHT22;38759;53.396;6.722;2023-04-15T05:57:27;6.20;99.90
52895;DHT22;38759;53.396;6.722;2023-04-15T05:59:52;6.20;99.90
52895;DHT22;38759;53.396;6.722;2023-04-15T06:02:18;6.40;99.90
52895;DHT22;38759;53.396;6.722;2023-04-15T06:04:44;6.40;99.90
52895;DHT22;38759;53.396;6.722;2023-04-15T06:07:09;6.40;99.90
52895;DHT22;38759;53.396;6.722;2023-04-15T06:09:35;6.40;99.90
52895;DHT22;38759;53.396;6.722;2023-04-15T06:12:01;6.60;99.90
52895;DHT22;38759;53.396;6.722;2023-04-15T06:14:27;6.70;99.90
52895;DHT22;38759;53.396;6.722;2023-04-15T06:16:53;6.70;99.90
52895;DHT22;38759;53.396;6.722;2023-04-15T06:19:19;6.80;99.90
52895;DHT22;38759;53.396;6.722;2023-04-15T06:21:45;6.80;99.90
52895;DHT22;38759;53.396;6.722;2023-04-15T06:24:11;6.90;99.90
52895;DHT22;38759;53.396;6.722;2023-04-15T06:26:36;7.00;99.90
52895;DHT22;38759;53.396;6.722;2023-04-15T06:29:02;7.00;99.90
52895;DHT22;38759;53.396;6.722;2023-04-15T06:31:29;7.20;99.90
52895;DHT22;38759;53.396;6.722;2023-04-15T06:33:55;7.20;99.90
52895;DHT22;38759;53.396;6.722;2023-04-15T06:36:20;7.20;99.90
52895;DHT22;38759;53.396;6.722;2023-04-15T06:38:46;7.30;99.90
52895;DHT22;38759;53.396;6.722;2023-04-15T06:41:12;7.40;99.90
52895;DHT22;38759;53.396;6.722;2023-04-15T06:43:38;7.40;99.90
52895;DHT22;38759;53.396;6.722;2023-04-15T06:46:04;7.50;99.90
52895;DHT22;38759;53.396;6.722;2023-04-15T06:48:30;7.50;99.90
52895;DHT22;38759;53.396;6.722;2023-04-15T06:50:55;7.60;99.90
52895;DHT22;38759;53.396;6.722;2023-04-15T06:53:24;7.60;99.90
52895;DHT22;38759;53.396;6.722;2023-04-15T06:55:51;7.60;99.90
52895;DHT22;38759;53.396;6.722;2023-04-15T06:58:17;7.70;99.90
52895;DHT22;38759;53.396;6.722;2023-04-15T07:00:42;7.70;99.90
52895;DHT22;38759;53.396;6.722;2023-04-15T07:03:11;7.70;99.90
52895;DHT22;38759;53.396;6.722;2023-04-15T07:05:37;7.80;99.90
52895;DHT22;38759;53.396;6.722;2023-04-15T07:08:03;7.80;99.90
52895;DHT22;38759;53.396;6.722;2023-04-15T07:10:29;7.80;99.90
52895;DHT22;38759;53.396;6.722;2023-04-15T07:12:55;7.90;99.90
52895;DHT22;38759;53.396;6.722;2023-04-15T07:15:21;7.90;99.90
52895;DHT22;38759;53.396;6.722;2023-04-15T07:17:48;8.00;99.90
52895;DHT22;38759;53.396;6.722;2023-04-15T07:20:14;7.90;99.90
52895;DHT22;38759;53.396;6.722;2023-04-15T07:22:39;8.00;99.90
52895;DHT22;38759;53.396;6.722;2023-04-15T07:25:05;8.00;99.90
52895;DHT22;38759;53.396;6.722;2023-04-15T07:27:32;8.00;99.90
52895;DHT22;38759;53.396;6.722;2023-04-15T07:29:57;8.00;99.90
52895;DHT22;38759;53.396;6.722;2023-04-15T07:32:23;8.00;99.90
52895;DHT22;38759;53.396;6.722;2023-04-15T07:34:49;8.00;99.90
52895;DHT22;38759;53.396;6.722;2023-04-15T07:37:14;8.00;99.90
52895;DHT22;38759;53.396;6.722;2023-04-15T07:39:40;8.00;99.90
52895;DHT22;38759;53.396;6.722;2023-04-15T07:42:07;8.00;99.90
52895;DHT22;38759;53.396;6.722;2023-04-15T07:44:33;8.00;99.90
52895;DHT22;38759;53.396;6.722;2023-04-15T07:46:58;8.00;99.90
52895;DHT22;38759;53.396;6.722;2023-04-15T07:49:24;8.10;99.90
52895;DHT22;38759;53.396;6.722;2023-04-15T07:51:50;8.10;99.90
52895;DHT22;38759;53.396;6.722;2023-04-15T07:54:15;8.10;99.90
52895;DHT22;38759;53.396;6.722;2023-04-15T07:56:41;8.10;99.90
52895;DHT22;38759;53.396;6.722;2023-04-15T07:59:08;8.10;99.90
52895;DHT22;38759;53.396;6.722;2023-04-15T08:01:35;8.10;99.90
52895;DHT22;38759;53.396;6.722;2023-04-15T08:04:01;8.10;99.90
52895;DHT22;38759;53.396;6.722;2023-04-15T08:06:27;8.10;99.90
52895;DHT22;38759;53.396;6.722;2023-04-15T08:08:53;8.10;99.90
52895;DHT22;38759;53.396;6.722;2023-04-15T08:11:19;8.10;99.90
52895;DHT22;38759;53.396;6.722;2023-04-15T08:13:46;8.10;99.90
52895;DHT22;38759;53.396;6.722;2023-04-15T08:16:25;8.10;99.90
52895;DHT22;38759;53.396;6.722;2023-04-15T08:18:54;8.20;99.90
52895;DHT22;38759;53.396;6.722;2023-04-15T08:21:20;8.20;99.90
52895;DHT22;38759;53.396;6.722;2023-04-15T08:23:47;8.20;99.90
52895;DHT22;38759;53.396;6.722;2023-04-15T08:26:14;8.20;99.90
52895;DHT22;38759;53.396;6.722;2023-04-15T08:28:41;8.30;99.90
52895;DHT22;38759;53.396;6.722;2023-04-15T08:31:07;8.30;99.90
52895;DHT22;38759;53.396;6.722;2023-04-15T08:33:33;8.30;99.90
52895;DHT22;38759;53.396;6.722;2023-04-15T08:35:59;8.30;99.90
52895;DHT22;38759;53.396;6.722;2023-04-15T08:38:25;8.40;99.90
52895;DHT22;38759;53.396;6.722;2023-04-15T08:40:50;8.50;99.90
52895;DHT22;38759;53.396;6.722;2023-04-15T08:43:26;8.50;99.90
52895;DHT22;38759;53.396;6.722;2023-04-15T08:45:53;8.50;99.90
52895;DHT22;38759;53.396;6.722;2023-04-15T08:48:19;8.50;99.90
52895;DHT22;38759;53.396;6.722;2023-04-15T08:50:46;8.50;99.90
52895;DHT22;38759;53.396;6.722;2023-04-15T08:53:12;8.50;99.90
52895;DHT22;38759;53.396;6.722;2023-04-15T08:55:42;8.50;99.90
52895;DHT22;38759;53.396;6.722;2023-04-15T08:58:12;8.60;99.90
52895;DHT22;38759;53.396;6.722;2023-04-15T09:00:39;8.60;99.90
52895;DHT22;38759;53.396;6.722;2023-04-15T09:03:06;8.60;99.90
52895;DHT22;38759;53.396;6.722;2023-04-15T09:05:33;8.70;99.90
52895;DHT22;38759;53.396;6.722;2023-04-15T09:08:00;8.80;99.90
52895;DHT22;38759;53.396;6.722;2023-04-15T09:10:27;8.90;99.90
52895;DHT22;38759;53.396;6.722;2023-04-15T09:12:53;9.00;99.90
52895;DHT22;38759;53.396;6.722;2023-04-15T09:15:19;9.00;99.90
52895;DHT22;38759;53.396;6.722;2023-04-15T09:17:45;9.10;99.90
52895;DHT22;38759;53.396;6.722;2023-04-15T09:20:13;9.10;99.90
52895;DHT22;38759;53.396;6.722;2023-04-15T09:22:40;9.10;99.90
52895;DHT22;38759;53.396;6.722;2023-04-15T09:27:54;9.20;99.90
52895;DHT22;38759;53.396;6.722;2023-04-15T09:30:20;9.20;99.90
52895;DHT22;38759;53.396;6.722;2023-04-15T09:32:58;9.30;99.90
52895;DHT22;38759;53.396;6.722;2023-04-15T09:35:25;9.30;99.90
52895;DHT22;38759;53.396;6.722;2023-04-15T09:37:52;9.30;99.90
52895;DHT22;38759;53.396;6.722;2023-04-15T09:42:57;9.30;99.90
52895;DHT22;38759;53.396;6.722;2023-04-15T09:45:23;9.40;99.90
52895;DHT22;38759;53.396;6.722;2023-04-15T09:47:49;9.40;99.90
52895;DHT22;38759;53.396;6.722;2023-04-15T09:50:16;9.40;99.90
52895;DHT22;38759;53.396;6.722;2023-04-15T09:52:43;9.50;99.90
52895;DHT22;38759;53.396;6.722;2023-04-15T09:55:09;9.60;99.90
52895;DHT22;38759;53.396;6.722;2023-04-15T09:57:36;9.60;99.90
52895;DHT22;38759;53.396;6.722;2023-04-15T10:00:07;9.70;99.90
52895;DHT22;38759;53.396;6.722;2023-04-15T10:02:34;9.80;99.90
52895;DHT22;38759;53.396;6.722;2023-04-15T10:05:01;9.80;99.90
52895;DHT22;38759;53.396;6.722;2023-04-15T10:07:27;9.90;99.90
52895;DHT22;38759;53.396;6.722;2023-04-15T10:09:54;10.00;99.90
52895;DHT22;38759;53.396;6.722;2023-04-15T10:12:21;10.00;99.90
52895;DHT22;38759;53.396;6.722;2023-04-15T10:15:02;10.00;99.90
52895;DHT22;38759;53.396;6.722;2023-04-15T10:17:29;9.90;99.90
52895;DHT22;38759;53.396;6.722;2023-04-15T10:20:00;9.90;99.90
52895;DHT22;38759;53.396;6.722;2023-04-15T10:22:27;9.90;99.90
52895;DHT22;38759;53.396;6.722;2023-04-15T10:24:54;9.80;99.90
52895;DHT22;38759;53.396;6.722;2023-04-15T10:27:21;9.80;99.90
52895;DHT22;38759;53.396;6.722;2023-04-15T10:29:49;9.80;99.90
52895;DHT22;38759;53.396;6.722;2023-04-15T10:32:18;9.70;99.90
52895;DHT22;38759;53.396;6.722;2023-04-15T10:34:47;9.70;99.90
52895;DHT22;38759;53.396;6.722;2023-04-15T10:37:20;9.70;99.90
52895;DHT22;38759;53.396;6.722;2023-04-15T10:39:46;9.60;99.90
52895;DHT22;38759;53.396;6.722;2023-04-15T10:42:14;9.60;99.90
52895;DHT22;38759;53.396;6.722;2023-04-15T10:44:47;9.60;99.90
52895;DHT22;38759;53.396;6.722;2023-04-15T10:47:17;9.60;99.90
52895;DHT22;38759;53.396;6.722;2023-04-15T10:49:49;9.70;99.90
52895;DHT22;38759;53.396;6.722;2023-04-15T10:52:16;9.70;99.90
52895;DHT22;38759;53.396;6.722;2023-04-15T10:54:43;9.70;99.90
52895;DHT22;38759;53.396;6.722;2023-04-15T10:57:15;9.70;99.90
52895;DHT22;38759;53.396;6.722;2023-04-15T11:05:06;9.80;99.90
52895;DHT22;38759;53.396;6.722;2023-04-15T11:07:40;9.70;99.90
52895;DHT22;38759;53.396;6.722;2023-04-15T11:12:38;9.80;99.90
52895;DHT22;38759;53.396;6.722;2023-04-15T11:18:07;9.80;99.90
52895;DHT22;38759;53.396;6.722;2023-04-15T11:20:33;9.80;99.90
52895;DHT22;38759;53.396;6.722;2023-04-15T11:22:59;9.80;99.90
52895;DHT22;38759;53.396;6.722;2023-04-15T11:25:33;9.70;99.90
52895;DHT22;38759;53.396;6.722;2023-04-15T11:28:00;9.60;99.90
52895;DHT22;38759;53.396;6.722;2023-04-15T11:30:28;9.60;99.90
52895;DHT22;38759;53.396;6.722;2023-04-15T11:32:57;9.70;99.90
52895;DHT22;38759;53.396;6.722;2023-04-15T11:35:24;9.70;99.90
52895;DHT22;38759;53.396;6.722;2023-04-15T11:37:50;9.80;99.90
52895;DHT22;38759;53.396;6.722;2023-04-15T11:40:27;9.80;99.90
52895;DHT22;38759;53.396;6.722;2023-04-15T11:43:22;9.80;99.90
52895;DHT22;38759;53.396;6.722;2023-04-15T11:45:56;9.80;99.90
52895;DHT22;38759;53.396;6.722;2023-04-15T11:48:27;9.80;99.90
52895;DHT22;38759;53.396;6.722;2023-04-15T11:56:01;9.70;99.90
52895;DHT22;38759;53.396;6.722;2023-04-15T11:58:28;9.60;99.90
52895;DHT22;38759;53.396;6.722;2023-04-15T12:00:59;9.60;99.90
52895;DHT22;38759;53.396;6.722;2023-04-15T12:09:08;9.50;99.90
52895;DHT22;38759;53.396;6.722;2023-04-15T12:11:41;9.50;99.90
52895;DHT22;38759;53.396;6.722;2023-04-15T12:16:57;9.50;99.90
52895;DHT22;38759;53.396;6.722;2023-04-15T12:22:09;9.40;99.90
52895;DHT22;38759;53.396;6.722;2023-04-15T12:24:36;9.40;99.90
52895;DHT22;38759;53.396;6.722;2023-04-15T12:27:06;9.40;99.90
52895;DHT22;38759;53.396;6.722;2023-04-15T12:29:34;9.40;99.90
52895;DHT22;38759;53.396;6.722;2023-04-15T12:32:16;9.40;99.90
52895;DHT22;38759;53.396;6.722;2023-04-15T12:34:49;9.40;99.90
52895;DHT22;38759;53.396;6.722;2023-04-15T12:37:15;9.40;99.90
52895;DHT22;38759;53.396;6.722;2023-04-15T12:39:43;9.40;99.90
52895;DHT22;38759;53.396;6.722;2023-04-15T12:42:10;9.40;99.90
52895;DHT22;38759;53.396;6.722;2023-04-15T12:44:36;9.40;99.90
52895;DHT22;38759;53.396;6.722;2023-04-15T12:47:03;9.30;99.90
52895;DHT22;38759;53.396;6.722;2023-04-15T12:49:29;9.30;99.90
52895;DHT22;38759;53.396;6.722;2023-04-15T12:51:56;9.20;99.90
52895;DHT22;38759;53.396;6.722;2023-04-15T12:54:22;9.20;99.90
52895;DHT22;38759;53.396;6.722;2023-04-15T12:56:48;9.20;99.90
52895;DHT22;38759;53.396;6.722;2023-04-15T12:59:15;9.10;99.90
52895;DHT22;38759;53.396;6.722;2023-04-15T13:01:43;9.10;99.90
52895;DHT22;38759;53.396;6.722;2023-04-15T13:04:09;9.10;99.90
52895;DHT22;38759;53.396;6.722;2023-04-15T13:06:35;9.10;99.90
52895;DHT22;38759;53.396;6.722;2023-04-15T13:09:02;9.10;99.90
52895;DHT22;38759;53.396;6.722;2023-04-15T13:11:28;9.10;99.90
52895;DHT22;38759;53.396;6.722;2023-04-15T13:14:03;9.00;99.90
52895;DHT22;38759;53.396;6.722;2023-04-15T13:16:29;9.00;99.90
52895;DHT22;38759;53.396;6.722;2023-04-15T13:18:56;9.00;99.90
52895;DHT22;38759;53.396;6.722;2023-04-15T13:21:22;9.00;99.90
52895;DHT22;38759;53.396;6.722;2023-04-15T13:23:48;9.00;99.90
52895;DHT22;38759;53.396;6.722;2023-04-15T13:26:16;9.10;99.90
52895;DHT22;38759;53.396;6.722;2023-04-15T13:28:41;9.00;99.90
52895;DHT22;38759;53.396;6.722;2023-04-15T13:31:07;9.00;99.90
52895;DHT22;38759;53.396;6.722;2023-04-15T13:33:33;9.00;99.90
52895;DHT22;38759;53.396;6.722;2023-04-15T13:35:59;9.00;99.90
52895;DHT22;38759;53.396;6.722;2023-04-15T13:38:24;9.00;99.90
52895;DHT22;38759;53.396;6.722;2023-04-15T13:40:51;9.00;99.90
52895;DHT22;38759;53.396;6.722;2023-04-15T13:43:16;9.10;99.90
52895;DHT22;38759;53.396;6.722;2023-04-15T13:45:43;9.00;99.90
52895;DHT22;38759;53.396;6.722;2023-04-15T13:48:08;9.00;99.90
52895;DHT22;38759;53.396;6.722;2023-04-15T13:50:34;9.00;99.90
52895;DHT22;38759;53.396;6.722;2023-04-15T13:53:00;9.00;99.90
52895;DHT22;38759;53.396;6.722;2023-04-15T13:55:26;9.00;99.90
52895;DHT22;38759;53.396;6.722;2023-04-15T13:57:51;9.00;99.90
52895;DHT22;38759;53.396;6.722;2023-04-15T14:00:17;9.00;99.90
52895;DHT22;38759;53.396;6.722;2023-04-15T14:02:43;8.90;99.90
52895;DHT22;38759;53.396;6.722;2023-04-15T14:05:09;8.90;99.90
52895;DHT22;38759;53.396;6.722;2023-04-15T14:07:35;8.90;99.90
52895;DHT22;38759;53.396;6.722;2023-04-15T14:10:01;8.90;99.90
52895;DHT22;38759;53.396;6.722;2023-04-15T14:12:27;9.00;99.90
52895;DHT22;38759;53.396;6.722;2023-04-15T14:14:52;8.90;99.90
52895;DHT22;38759;53.396;6.722;2023-04-15T14:17:18;8.90;99.90
52895;DHT22;38759;53.396;6.722;2023-04-15T14:19:44;8.90;99.90
52895;DHT22;38759;53.396;6.722;2023-04-15T14:22:09;8.80;99.90
52895;DHT22;38759;53.396;6.722;2023-04-15T14:24:35;8.90;99.90
52895;DHT22;38759;53.396;6.722;2023-04-15T14:27:01;8.80;99.90
52895;DHT22;38759;53.396;6.722;2023-04-15T14:29:27;8.80;99.90
52895;DHT22;38759;53.396;6.722;2023-04-15T14:31:53;8.80;99.90
52895;DHT22;38759;53.396;6.722;2023-04-15T14:34:18;8.80;99.90
52895;DHT22;38759;53.396;6.722;2023-04-15T14:36:46;8.80;99.90
52895;DHT22;38759;53.396;6.722;2023-04-15T14:39:13;8.80;99.90
52895;DHT22;38759;53.396;6.722;2023-04-15T14:41:38;8.80;99.90
52895;DHT22;38759;53.396;6.722;2023-04-15T14:44:04;8.80;99.90
52895;DHT22;38759;53.396;6.722;2023-04-15T14:46:30;8.70;99.90
52895;DHT22;38759;53.396;6.722;2023-04-15T14:48:56;8.70;99.90
52895;DHT22;38759;53.396;6.722;2023-04-15T14:51:22;8.70;99.90
52895;DHT22;38759;53.396;6.722;2023-04-15T14:53:47;8.70;99.90
52895;DHT22;38759;53.396;6.722;2023-04-15T14:56:13;8.70;99.90
52895;DHT22;38759;53.396;6.722;2023-04-15T14:58:39;8.70;99.90
52895;DHT22;38759;53.396;6.722;2023-04-15T15:01:05;8.60;99.90
52895;DHT22;38759;53.396;6.722;2023-04-15T15:03:31;8.60;99.90
52895;DHT22;38759;53.396;6.722;2023-04-15T15:05:56;8.70;99.90
52895;DHT22;38759;53.396;6.722;2023-04-15T15:08:22;8.60;99.90
52895;DHT22;38759;53.396;6.722;2023-04-15T15:10:48;8.60;99.90
52895;DHT22;38759;53.396;6.722;2023-04-15T15:13:14;8.50;99.90
52895;DHT22;38759;53.396;6.722;2023-04-15T15:15:40;8.60;99.90
52895;DHT22;38759;53.396;6.722;2023-04-15T15:18:06;8.50;99.90
52895;DHT22;38759;53.396;6.722;2023-04-15T15:20:32;8.50;99.90
52895;DHT22;38759;53.396;6.722;2023-04-15T15:22:59;8.50;99.90
52895;DHT22;38759;53.396;6.722;2023-04-15T15:25:25;8.60;99.90
52895;DHT22;38759;53.396;6.722;2023-04-15T15:27:51;8.50;99.90
52895;DHT22;38759;53.396;6.722;2023-04-15T15:30:17;8.50;99.90
52895;DHT22;38759;53.396;6.722;2023-04-15T15:32:43;8.50;99.90
52895;DHT22;38759;53.396;6.722;2023-04-15T15:35:09;8.50;99.90
52895;DHT22;38759;53.396;6.722;2023-04-15T15:37:35;8.40;99.90
52895;DHT22;38759;53.396;6.722;2023-04-15T15:40:03;8.40;99.90
52895;DHT22;38759;53.396;6.722;2023-04-15T15:42:32;8.40;99.90
52895;DHT22;38759;53.396;6.722;2023-04-15T15:44:59;8.50;99.90
52895;DHT22;38759;53.396;6.722;2023-04-15T15:47:25;8.40;99.90
52895;DHT22;38759;53.396;6.722;2023-04-15T15:49:51;8.40;99.90
52895;DHT22;38759;53.396;6.722;2023-04-15T15:52:17;8.40;99.90
52895;DHT22;38759;53.396;6.722;2023-04-15T15:54:43;8.40;99.90
52895;DHT22;38759;53.396;6.722;2023-04-15T15:57:09;8.40;99.90
52895;DHT22;38759;53.396;6.722;2023-04-15T15:59:35;8.40;99.90
52895;DHT22;38759;53.396;6.722;2023-04-15T16:02:07;8.40;99.90
52895;DHT22;38759;53.396;6.722;2023-04-15T16:04:34;8.40;99.90
52895;DHT22;38759;53.396;6.722;2023-04-15T16:07:00;8.40;99.90
52895;DHT22;38759;53.396;6.722;2023-04-15T16:09:25;8.40;99.90
52895;DHT22;38759;53.396;6.722;2023-04-15T16:11:51;8.30;99.90
52895;DHT22;38759;53.396;6.722;2023-04-15T16:14:17;8.40;99.90